Macomb, Illinois
Current Conditions -  °F | °C
As of 7:15 AM on Thursday 18 Dec 2014 (Local Time) from KMQB Reporting Station
Overcast Overcast  
Wind Chill: 22°   Ceiling: 8500
Heat Index: 22°   Visibility: 10mi
Dew Point: 20°   Wind: 0mph
Humidity: 91%   Direction: NA
Pressure: 30.32"   Gusts: NA
Location:  40.46°N, 90.67°W
Report Text: KMQB 181315Z AUTO 00000KT 10SM OVC085 M05/M07 A3032 RMK AO2 T10531066
Loading
Personal Weather Stations






























Interactive Weather Map New forecast layout! Learn more

10-Day Weather Forecast

Advertisements
Track Severe Weather on mobile